createdAt,value
2018-12-17T00:00:39.155Z,97071.19
2018-12-17T00:03:08.421Z,97075.08
2018-12-17T00:05:41.752Z,97079.39
2018-12-17T00:08:09.099Z,97080.60
2018-12-17T00:10:38.400Z,97082.41
2018-12-17T00:13:08.245Z,97079.55
2018-12-17T00:15:37.467Z,97089.69
2018-12-17T00:18:06.787Z,97085.95
2018-12-17T00:20:36.038Z,97086.77
2018-12-17T00:23:05.301Z,97087.64
2018-12-17T00:25:34.514Z,97089.23
2018-12-17T00:28:08.081Z,97084.77
2018-12-17T00:30:34.997Z,97085.23
2018-12-17T00:33:04.277Z,97096.45
2018-12-17T00:35:33.544Z,97091.33
2018-12-17T00:38:02.744Z,97098.55
2018-12-17T00:40:33.082Z,97097.73
2018-12-17T00:43:02.406Z,97102.13
2018-12-17T00:45:31.753Z,97100.87
2018-12-17T00:48:00.964Z,97109.89
2018-12-17T00:50:30.198Z,97116.72
2018-12-17T00:52:59.399Z,97118.05
2018-12-17T00:55:28.653Z,97122.73
2018-12-17T00:57:57.949Z,97116.84
2018-12-17T01:00:27.409Z,97106.70
2018-12-17T01:02:56.806Z,97118.71
2018-12-17T01:05:26.198Z,97113.13
2018-12-17T01:07:56.358Z,97116.94
2018-12-17T01:10:25.943Z,97117.00
2018-12-17T01:12:55.185Z,97119.98
2018-12-17T01:15:24.430Z,97117.78
2018-12-17T01:17:53.814Z,97119.53
2018-12-17T01:20:23.047Z,97131.66
2018-12-17T01:22:52.946Z,97130.78
2018-12-17T01:25:22.220Z,97125.72
2018-12-17T01:27:51.519Z,97124.94
2018-12-17T01:30:20.796Z,97122.73
2018-12-17T01:32:50.401Z,97133.33
2018-12-17T01:35:19.705Z,97129.19
2018-12-17T01:37:49.002Z,97131.09
2018-12-17T01:40:18.332Z,97133.09
2018-12-17T01:42:47.608Z,97126.87
2018-12-17T01:45:16.818Z,97134.69
2018-12-17T01:47:46.097Z,97139.38
2018-12-17T01:50:15.434Z,97140.85
2018-12-17T01:52:44.650Z,97133.39
2018-12-17T01:55:14.485Z,97128.92
2018-12-17T01:57:43.705Z,97125.27
2018-12-17T02:00:13.115Z,97128.20
2018-12-17T02:02:42.701Z,97135.87
2018-12-17T02:05:12.133Z,97129.59
2018-12-17T02:07:41.322Z,97127.50
2018-12-17T02:10:10.823Z,97128.44
2018-12-17T02:12:40.158Z,97136.81
2018-12-17T02:15:09.573Z,97134.78
2018-12-17T02:17:38.838Z,97129.41
2018-12-17T02:20:08.590Z,97134.21
2018-12-17T02:22:37.833Z,97130.73
2018-12-17T02:25:07.358Z,97129.73
2018-12-17T02:27:36.603Z,97123.70
2018-12-17T02:30:07.265Z,97142.30
2018-12-17T02:32:36.604Z,97151.06
2018-12-17T02:35:06.300Z,97149.31
2018-12-17T02:37:36.057Z,97152.67
2018-12-17T02:40:07.062Z,97150.91
2018-12-17T02:42:36.333Z,97144.42
2018-12-17T02:45:06.316Z,97141.76
2018-12-17T02:47:35.634Z,97147.89
2018-12-17T02:50:06.070Z,97140.61
2018-12-17T02:52:35.444Z,97139.28
2018-12-17T02:55:05.390Z,97139.23
2018-12-17T02:57:34.685Z,97136.11
2018-12-17T03:00:04.988Z,97139.76
2018-12-17T03:02:34.361Z,97139.34
2018-12-17T03:05:04.105Z,97133.39
2018-12-17T03:07:33.336Z,97139.61
2018-12-17T03:10:02.641Z,97135.36
2018-12-17T03:12:31.870Z,97132.92
2018-12-17T03:15:01.228Z,97137.44
2018-12-17T03:17:30.523Z,97148.95
2018-12-17T03:19:59.747Z,97147.87
2018-12-17T03:22:29.192Z,97135.52
2018-12-17T03:24:58.481Z,97142.11
2018-12-17T03:27:27.724Z,97153.08
2018-12-17T03:29:56.950Z,97152.46
2018-12-17T03:32:26.297Z,97156.56
2018-12-17T03:34:55.708Z,97153.52
2018-12-17T03:37:24.954Z,97152.60
2018-12-17T03:39:54.182Z,97160.56
2018-12-17T03:42:23.465Z,97166.14
2018-12-17T03:44:52.768Z,97166.75
2018-12-17T03:47:27.591Z,97169.78
2018-12-17T03:49:56.822Z,97178.45
2018-12-17T03:52:26.068Z,97180.59
2018-12-17T03:54:55.578Z,97183.05
2018-12-17T03:57:24.893Z,97186.66
2018-12-17T03:59:54.136Z,97184.45
2018-12-17T04:02:23.430Z,97186.25
2018-12-17T04:04:53.028Z,97192.58
2018-12-17T04:07:23.258Z,97199.58
2018-12-17T04:09:52.501Z,97188.05
2018-12-17T04:12:21.753Z,97195.55
2018-12-17T04:14:51.822Z,97190.80
2018-12-17T04:17:21.154Z,97191.31
2018-12-17T04:19:50.406Z,97192.05
2018-12-17T04:22:19.633Z,97194.14
2018-12-17T04:24:48.875Z,97206.77
2018-12-17T04:27:18.157Z,97217.52
2018-12-17T04:29:47.403Z,97224.86
2018-12-17T04:32:16.646Z,97218.42
2018-12-17T04:34:45.892Z,97220.25
2018-12-17T04:37:15.131Z,97217.47
2018-12-17T04:39:44.380Z,97230.44
2018-12-17T04:42:13.721Z,97234.44
2018-12-17T04:44:43.002Z,97235.91
2018-12-17T04:47:12.217Z,97243.88
2018-12-17T04:49:41.453Z,97257.09
2018-12-17T04:52:10.717Z,97260.94
2018-12-17T04:54:40.056Z,97260.11
2018-12-17T04:57:16.289Z,97263.77
2018-12-17T04:59:45.578Z,97275.34
2018-12-17T05:02:14.909Z,97274.63
2018-12-17T05:04:44.145Z,97271.27
2018-12-17T05:07:13.385Z,97272.45
2018-12-17T05:09:44.402Z,97283.59
2018-12-17T05:12:13.918Z,97288.34
2018-12-17T05:14:43.221Z,97285.98
2018-12-17T05:17:12.459Z,97297.23
2018-12-17T05:19:41.700Z,97296.61
2018-12-17T05:22:10.929Z,97301.59
2018-12-17T05:24:40.165Z,97309.58
2018-12-17T05:27:09.409Z,97313.87
2018-12-17T05:29:38.678Z,97322.55
2018-12-17T05:32:08.100Z,97326.98
2018-12-17T05:34:37.365Z,97328.75
2018-12-17T05:37:06.881Z,97334.13
2018-12-17T05:39:36.103Z,97335.08
2018-12-17T05:42:05.504Z,97341.58
2018-12-17T05:44:34.718Z,97346.33
2018-12-17T05:47:04.053Z,97353.92
2018-12-17T05:49:33.254Z,97357.97
2018-12-17T05:52:02.509Z,97364.86
2018-12-17T05:54:31.794Z,97363.87
2018-12-17T05:57:01.029Z,97362.33
2018-12-17T05:59:30.252Z,97364.44
2018-12-17T06:01:59.486Z,97364.86
2018-12-17T06:04:28.777Z,97363.59
2018-12-17T06:06:58.053Z,97362.16
2018-12-17T06:09:27.687Z,97374.81
2018-12-17T06:11:57.126Z,97383.86
2018-12-17T06:14:26.349Z,97389.00
2018-12-17T06:16:56.203Z,97391.63
2018-12-17T06:19:25.442Z,97393.53
2018-12-17T06:21:54.679Z,97401.45
2018-12-17T06:24:23.937Z,97406.52
2018-12-17T06:26:53.217Z,97401.63
2018-12-17T06:29:22.518Z,97401.77
2018-12-17T06:31:51.769Z,97413.17
2018-12-17T06:34:21.010Z,97414.44
2018-12-17T06:36:50.250Z,97422.03
2018-12-17T06:39:19.718Z,97425.52
2018-12-17T06:41:49.041Z,97431.78
2018-12-17T06:44:18.334Z,97434.31
2018-12-17T06:46:47.565Z,97438.54
2018-12-17T06:49:16.857Z,97438.08
2018-12-17T06:51:46.365Z,97440.30
2018-12-17T06:54:15.802Z,97446.39
2018-12-17T06:56:45.164Z,97435.83
2018-12-17T06:59:14.396Z,97458.81
2018-12-17T07:01:43.643Z,97459.62
2018-12-17T07:04:12.867Z,97468.17
2018-12-17T07:06:42.202Z,97466.41
2018-12-17T07:09:11.434Z,97473.24
2018-12-17T07:11:40.669Z,97469.52
2018-12-17T07:14:09.922Z,97486.23
2018-12-17T07:16:39.163Z,97485.14
2018-12-17T07:19:08.413Z,97486.09
2018-12-17T07:21:37.658Z,97486.09
2018-12-17T07:24:06.921Z,97483.70
2018-12-17T07:26:36.181Z,97499.58
2018-12-17T07:29:05.506Z,97500.91
2018-12-17T07:31:34.886Z,97506.55
2018-12-17T07:34:04.311Z,97503.20
2018-12-17T07:36:33.764Z,97515.88
2018-12-17T07:39:03.702Z,97516.55
2018-12-17T07:41:33.053Z,97521.77
2018-12-17T07:44:02.301Z,97527.50
2018-12-17T07:46:31.575Z,97525.73
2018-12-17T07:49:00.819Z,97529.05
2018-12-17T07:51:30.132Z,97527.25
2018-12-17T07:53:59.367Z,97532.89
2018-12-17T07:56:29.279Z,97538.91
2018-12-17T07:58:58.507Z,97541.94
2018-12-17T08:01:28.249Z,97542.72
2018-12-17T08:03:57.495Z,97544.62
2018-12-17T08:06:26.721Z,97547.55
2018-12-17T08:08:55.938Z,97554.37
2018-12-17T08:11:25.234Z,97548.73
2018-12-17T08:13:54.557Z,97557.64
2018-12-17T08:16:23.812Z,97556.44
2018-12-17T08:18:53.041Z,97556.69
2018-12-17T08:21:22.338Z,97561.30
2018-12-17T08:23:51.576Z,97557.63
2018-12-17T08:26:20.895Z,97562.17
2018-12-17T08:28:50.405Z,97564.88
2018-12-17T08:31:19.798Z,97575.25
2018-12-17T08:33:49.111Z,97578.28
2018-12-17T08:36:18.415Z,97585.95
2018-12-17T08:38:47.669Z,97578.91
2018-12-17T08:41:16.885Z,97584.52
2018-12-17T08:43:46.282Z,97584.91
2018-12-17T08:46:15.515Z,97594.67
2018-12-17T08:48:44.859Z,97592.23
2018-12-17T08:51:14.154Z,97598.11
2018-12-17T08:53:43.377Z,97597.79
2018-12-17T08:56:12.678Z,97605.64
2018-12-17T08:58:41.995Z,97607.34
2018-12-17T09:01:11.219Z,97616.36
2018-12-17T09:03:40.647Z,97616.28
2018-12-17T09:06:09.958Z,97606.29
2018-12-17T09:08:39.198Z,97618.13
2018-12-17T09:11:08.434Z,97628.59
2018-12-17T09:16:37.693Z,97632.70
2018-12-17T09:19:06.912Z,97631.86
2018-12-17T09:21:36.225Z,97633.52
2018-12-17T09:24:05.745Z,97638.11
2018-12-17T09:26:35.181Z,97630.27
2018-12-17T09:29:04.664Z,97634.14
2018-12-17T09:31:34.047Z,97637.31
2018-12-17T09:34:03.341Z,97643.98
2018-12-17T09:36:32.549Z,97642.08
2018-12-17T09:39:01.762Z,97645.08
2018-12-17T09:41:31.862Z,97646.84
2018-12-17T09:44:01.075Z,97647.88
2018-12-17T09:46:31.542Z,97654.30
2018-12-17T09:49:00.843Z,97650.62
2018-12-17T09:51:30.150Z,97650.97
2018-12-17T09:53:59.449Z,97644.79
2018-12-17T09:56:28.705Z,97649.62
2018-12-17T09:58:58.047Z,97640.81
2018-12-17T10:01:27.246Z,97639.39
2018-12-17T10:03:56.450Z,97642.25
2018-12-17T10:06:25.777Z,97639.06
2018-12-17T10:08:55.005Z,97639.61
2018-12-17T10:11:24.253Z,97644.87
2018-12-17T10:13:53.669Z,97638.91
2018-12-17T10:16:22.892Z,97635.09
2018-12-17T10:18:52.120Z,97641.93
2018-12-17T10:21:21.335Z,97643.03
2018-12-17T10:23:50.644Z,97649.53
2018-12-17T10:26:19.868Z,97655.72
2018-12-17T10:28:49.250Z,97664.78
2018-12-17T10:31:18.553Z,97657.30
2018-12-17T10:33:47.841Z,97659.48
2018-12-17T10:36:17.089Z,97663.52
2018-12-17T10:38:46.589Z,97662.32
2018-12-17T10:41:15.829Z,97667.17
2018-12-17T10:43:45.502Z,97666.14
2018-12-17T10:46:14.817Z,97661.44
2018-12-17T10:48:44.357Z,97660.10
2018-12-17T10:51:13.604Z,97658.75
2018-12-17T10:53:43.222Z,97658.98
2018-12-17T10:56:12.554Z,97666.13
2018-12-17T10:58:42.067Z,97664.86
2018-12-17T11:01:16.520Z,97671.84
2018-12-17T11:06:51.275Z,97664.27
2018-12-17T11:09:20.503Z,97660.41
2018-12-17T11:11:50.783Z,97657.20
2018-12-17T11:14:20.109Z,97651.81
2018-12-17T11:16:49.394Z,97652.83
2018-12-17T11:19:18.705Z,97651.52
2018-12-17T11:21:48.178Z,97658.89
2018-12-17T11:24:17.439Z,97658.95
2018-12-17T11:26:46.825Z,97662.61
2018-12-17T11:29:17.286Z,97652.05
2018-12-17T11:31:46.676Z,97650.62
2018-12-17T11:34:15.926Z,97659.84
2018-12-17T11:36:45.378Z,97660.91
2018-12-17T11:39:14.952Z,97637.87
2018-12-17T11:41:44.216Z,97647.45
2018-12-17T11:44:13.550Z,97650.69
2018-12-17T11:46:44.508Z,97649.28
2018-12-17T11:49:13.783Z,97652.98
2018-12-17T11:51:43.243Z,97650.66
2018-12-17T11:54:12.619Z,97656.58
2018-12-17T11:57:02.371Z,97652.86
2018-12-17T11:59:31.635Z,97656.34
2018-12-17T12:02:00.981Z,97655.26
2018-12-17T12:04:30.208Z,97656.86
2018-12-17T12:06:59.469Z,97666.09
2018-12-17T12:12:30.324Z,97671.69
2018-12-17T12:15:00.274Z,97657.79
2018-12-17T12:17:31.089Z,97664.89
2018-12-17T12:20:00.347Z,97660.06
2018-12-17T12:22:29.669Z,97667.16
2018-12-17T12:24:58.905Z,97657.26
2018-12-17T12:27:28.296Z,97650.50
2018-12-17T12:29:57.913Z,97659.50
2018-12-17T12:32:27.273Z,97651.20
2018-12-17T12:34:56.602Z,97646.91
2018-12-17T12:37:25.905Z,97640.47
2018-12-17T12:39:55.130Z,97651.02
2018-12-17T12:42:24.370Z,97647.02
2018-12-17T12:44:53.597Z,97652.90
2018-12-17T12:47:23.029Z,97657.62
2018-12-17T12:49:52.239Z,97653.87
2018-12-17T12:52:21.510Z,97670.52
2018-12-17T12:54:50.821Z,97666.45
2018-12-17T12:57:20.050Z,97667.97
2018-12-17T12:59:49.286Z,97671.97
2018-12-17T13:02:18.597Z,97686.21
2018-12-17T13:04:47.917Z,97681.56
2018-12-17T13:07:17.326Z,97700.34
2018-12-17T13:09:46.599Z,97702.06
2018-12-17T13:12:15.849Z,97697.14
2018-12-17T13:14:45.270Z,97709.84
2018-12-17T13:17:19.807Z,97712.49
2018-12-17T13:19:49.216Z,97715.75
2018-12-17T13:22:18.434Z,97708.67
2018-12-17T13:24:47.693Z,97723.05
2018-12-17T13:27:16.975Z,97712.94
2018-12-17T13:29:46.202Z,97719.89
2018-12-17T13:32:15.537Z,97717.52
2018-12-17T13:34:44.767Z,97731.17
2018-12-17T13:37:13.986Z,97730.95
2018-12-17T13:39:43.366Z,97736.52
2018-12-17T13:42:12.665Z,97739.03
2018-12-17T13:44:42.114Z,97736.13
2018-12-17T13:47:12.472Z,97743.11
2018-12-17T13:49:41.715Z,97742.06
2018-12-17T13:52:16.238Z,97750.32
2018-12-17T13:54:45.438Z,97754.98
2018-12-17T13:57:15.085Z,97744.19
2018-12-17T13:59:44.813Z,97760.34
2018-12-17T14:02:14.449Z,97761.64
2018-12-17T14:04:43.674Z,97762.09
2018-12-17T14:07:12.894Z,97766.23
2018-12-17T14:09:47.405Z,97771.25
2018-12-17T14:12:16.754Z,97776.34
2018-12-17T14:14:46.057Z,97770.22
2018-12-17T14:17:20.749Z,97773.22
2018-12-17T14:19:54.828Z,97777.03
2018-12-17T14:22:24.387Z,97779.91
2018-12-17T14:24:53.697Z,97782.13
2018-12-17T14:27:22.917Z,97786.27
2018-12-17T14:29:52.236Z,97797.78
2018-12-17T14:32:21.451Z,97788.94
2018-12-17T14:34:50.770Z,97793.08
2018-12-17T14:37:20.003Z,97796.44
2018-12-17T14:39:49.234Z,97788.06
2018-12-17T14:42:18.563Z,97793.47
2018-12-17T14:44:47.932Z,97796.12
2018-12-17T14:47:17.228Z,97798.17
2018-12-17T14:49:47.049Z,97792.04
2018-12-17T14:52:17.370Z,97805.31
2018-12-17T14:54:47.009Z,97815.17
2018-12-17T14:57:16.349Z,97819.48
2018-12-17T14:59:45.641Z,97837.68
2018-12-17T15:02:14.894Z,97834.25
2018-12-17T15:04:44.236Z,97828.28
2018-12-17T15:07:13.644Z,97837.29
2018-12-17T15:09:42.857Z,97838.95
2018-12-17T15:12:12.114Z,97846.20
2018-12-17T15:14:41.481Z,97843.16
2018-12-17T15:17:10.745Z,97849.20
2018-12-17T15:19:39.968Z,97847.14
2018-12-17T15:22:09.205Z,97850.80
2018-12-17T15:24:40.440Z,97842.84
2018-12-17T15:27:09.690Z,97855.63
2018-12-17T15:29:38.980Z,97853.97
2018-12-17T15:32:08.419Z,97852.83
2018-12-17T15:34:37.888Z,97867.48
2018-12-17T15:37:07.185Z,97864.38
2018-12-17T15:39:36.421Z,97866.37
2018-12-17T15:42:05.942Z,97858.11
2018-12-17T15:44:35.241Z,97859.39
2018-12-17T15:47:04.484Z,97870.58
2018-12-17T15:49:33.809Z,97873.13
2018-12-17T15:52:03.059Z,97873.52
2018-12-17T15:54:32.586Z,97881.25
2018-12-17T15:57:01.825Z,97889.45
2018-12-17T15:59:31.977Z,97894.67
2018-12-17T16:02:01.190Z,97892.75
2018-12-17T16:04:30.486Z,97892.45
2018-12-17T16:06:59.721Z,97894.67
2018-12-17T16:09:28.937Z,97893.41
2018-12-17T16:11:58.245Z,97897.22
2018-12-17T16:14:27.502Z,97910.51
2018-12-17T16:16:56.757Z,97910.09
2018-12-17T16:19:25.977Z,97916.12
2018-12-17T16:21:55.249Z,97921.22
2018-12-17T16:24:24.458Z,97928.56
2018-12-17T16:26:53.701Z,97927.75
2018-12-17T16:29:22.960Z,97930.30
2018-12-17T16:31:57.536Z,97925.70
2018-12-17T16:34:26.527Z,97936.66
2018-12-17T16:36:56.131Z,97932.84
2018-12-17T16:39:26.194Z,97934.93
2018-12-17T16:41:56.037Z,97941.13
2018-12-17T16:44:25.302Z,97938.41
2018-12-17T16:46:54.596Z,97949.22
2018-12-17T16:49:23.811Z,97951.77
2018-12-17T16:51:53.119Z,97947.10
2018-12-17T16:54:22.676Z,97951.31
2018-12-17T16:56:51.919Z,97950.75
2018-12-17T16:59:21.216Z,97954.18
2018-12-17T17:01:50.437Z,97942.23
2018-12-17T17:04:19.657Z,97954.18
2018-12-17T17:06:48.937Z,97950.69
2018-12-17T17:09:18.478Z,97955.61
2018-12-17T17:11:47.761Z,97960.20
2018-12-17T17:14:17.004Z,97967.70
2018-12-17T17:16:46.731Z,97973.58
2018-12-17T17:19:16.076Z,97964.11
2018-12-17T17:21:45.759Z,97975.66
2018-12-17T17:24:15.080Z,97970.57
2018-12-17T17:26:44.351Z,97969.12
2018-12-17T17:29:13.569Z,97966.98
2018-12-17T17:31:42.879Z,97967.30
2018-12-17T17:34:12.099Z,97968.95
2018-12-17T17:36:41.302Z,97975.32
2018-12-17T17:39:10.590Z,97974.05
2018-12-17T17:44:38.195Z,97981.69
2018-12-17T17:47:07.626Z,97988.54
2018-12-17T17:49:36.836Z,97999.43
2018-12-17T17:52:06.282Z,98006.19
2018-12-17T17:54:35.523Z,98007.31
2018-12-17T17:57:05.019Z,98002.83
2018-12-17T17:59:34.269Z,98010.47
2018-12-17T18:02:03.768Z,98017.14
2018-12-17T18:04:33.142Z,98020.96
2018-12-17T18:07:02.442Z,98020.50
2018-12-17T18:09:31.663Z,98025.17
2018-12-17T18:12:00.976Z,98033.80
2018-12-17T18:14:30.226Z,98036.87
2018-12-17T18:16:59.550Z,98041.89
2018-12-17T18:19:28.801Z,98046.02
2018-12-17T18:21:58.041Z,98047.22
2018-12-17T18:24:27.263Z,98051.50
2018-12-17T18:26:56.497Z,98052.77
2018-12-17T18:29:25.730Z,98047.30
2018-12-17T18:31:55.040Z,98048.56
2018-12-17T18:34:24.292Z,98055.81
2018-12-17T18:36:53.531Z,98062.56
2018-12-17T18:39:23.554Z,98068.53
2018-12-17T18:41:52.773Z,98060.41
2018-12-17T18:44:22.184Z,98067.58
2018-12-17T18:46:51.420Z,98078.08
2018-12-17T18:49:20.671Z,98089.21
2018-12-17T18:51:50.165Z,98088.78
2018-12-17T18:54:19.483Z,98097.80
2018-12-17T18:56:48.909Z,98102.58
2018-12-17T18:59:18.265Z,98100.09
2018-12-17T19:01:47.693Z,98101.77
2018-12-17T19:04:17.003Z,98104.03
2018-12-17T19:06:46.286Z,98099.01
2018-12-17T19:09:15.641Z,98104.48
2018-12-17T19:11:44.979Z,98104.88
2018-12-17T19:14:14.345Z,98101.23
2018-12-17T19:16:43.668Z,98100.28
2018-12-17T19:19:13.126Z,98103.21
2018-12-17T19:21:42.687Z,98100.20
2018-12-17T19:24:12.026Z,98110.98
2018-12-17T19:26:41.363Z,98113.38
2018-12-17T19:29:10.827Z,98122.86
2018-12-17T19:31:40.176Z,98118.80
2018-12-17T19:34:09.435Z,98123.89
2018-12-17T19:36:38.800Z,98117.34
2018-12-17T19:39:09.026Z,98124.67
2018-12-17T19:41:38.384Z,98119.58
2018-12-17T19:44:07.737Z,98122.12
2018-12-17T19:46:37.074Z,98122.62
2018-12-17T19:49:06.536Z,98126.13
2018-12-17T19:51:35.980Z,98122.30
2018-12-17T19:54:05.635Z,98123.50
2018-12-17T19:56:34.999Z,98124.22
2018-12-17T19:59:05.084Z,98130.89
2018-12-17T20:01:34.707Z,98133.83
2018-12-17T20:07:05.709Z,98136.44
2018-12-17T20:09:35.102Z,98141.45
2018-12-17T20:12:04.743Z,98145.03
2018-12-17T20:14:34.045Z,98146.66
2018-12-17T20:17:03.448Z,98147.44
2018-12-17T20:19:32.817Z,98151.64
2018-12-17T20:22:02.297Z,98152.77
2018-12-17T20:24:31.710Z,98146.98
2018-12-17T20:27:01.010Z,98166.70
2018-12-17T20:29:30.426Z,98163.01
2018-12-17T20:31:59.768Z,98158.63
2018-12-17T20:34:29.163Z,98161.81
2018-12-17T20:36:58.490Z,98166.91
2018-12-17T20:39:28.684Z,98162.07
2018-12-17T20:41:58.129Z,98170.59
2018-12-17T20:44:27.449Z,98174.73
2018-12-17T20:46:56.964Z,98175.67
2018-12-17T20:49:26.382Z,98176.56
2018-12-17T20:51:55.761Z,98187.00
2018-12-17T20:54:25.037Z,98179.36
2018-12-17T20:56:54.429Z,98188.80
2018-12-17T20:59:23.731Z,98183.95
2018-12-17T21:01:53.019Z,98186.19
2018-12-17T21:04:22.453Z,98181.59
2018-12-17T21:06:51.770Z,98180.63
2018-12-17T21:09:21.073Z,98178.86
2018-12-17T21:11:50.342Z,98179.95
2018-12-17T21:14:23.613Z,98184.59
2018-12-17T21:16:51.308Z,98189.36
2018-12-17T21:19:20.870Z,98190.81
2018-12-17T21:21:50.218Z,98194.00
2018-12-17T21:24:20.001Z,98197.33
2018-12-17T21:26:49.291Z,98207.20
2018-12-17T21:29:18.659Z,98201.89
2018-12-17T21:31:48.014Z,98206.17
2018-12-17T21:34:17.475Z,98209.72
2018-12-17T21:36:46.949Z,98203.73
2018-12-17T21:39:16.332Z,98212.41
2018-12-17T21:41:45.648Z,98208.98
2018-12-17T21:44:15.115Z,98214.70
2018-12-17T21:46:44.607Z,98214.62
2018-12-17T21:49:14.621Z,98220.50
2018-12-17T21:51:43.934Z,98226.80
2018-12-17T21:54:13.367Z,98225.91
2018-12-17T21:56:42.746Z,98227.18
2018-12-17T21:59:12.058Z,98232.66
2018-12-17T22:01:41.409Z,98226.87
2018-12-17T22:04:10.879Z,98226.87
2018-12-17T22:06:40.593Z,98223.16
2018-12-17T22:09:10.002Z,98222.41
2018-12-17T22:11:39.350Z,98216.11
2018-12-17T22:14:08.758Z,98214.84
2018-12-17T22:16:38.061Z,98221.00
2018-12-17T22:19:07.558Z,98223.16
2018-12-17T22:21:36.936Z,98219.09
2018-12-17T22:24:06.266Z,98216.61
2018-12-17T22:26:35.535Z,98217.38
2018-12-17T22:29:05.583Z,98216.78
2018-12-17T22:31:34.930Z,98217.36
2018-12-17T22:34:04.857Z,98219.48
2018-12-17T22:36:34.273Z,98223.93
2018-12-17T22:39:05.572Z,98222.97
2018-12-17T22:41:34.893Z,98223.36
2018-12-17T22:44:04.597Z,98226.80
2018-12-17T22:46:34.058Z,98226.46
2018-12-17T22:49:03.469Z,98216.98
2018-12-17T22:51:32.759Z,98221.12
2018-12-17T22:54:02.532Z,98218.00
2018-12-17T22:56:31.813Z,98226.09
2018-12-17T23:02:03.987Z,98227.12
2018-12-17T23:04:33.300Z,98228.08
2018-12-17T23:07:02.789Z,98231.38
2018-12-17T23:09:49.125Z,98228.33
2018-12-17T23:12:35.421Z,98229.22
2018-12-17T23:15:21.702Z,98231.38
2018-12-17T23:17:49.537Z,98222.91
2018-12-17T23:20:19.492Z,98226.39
2018-12-17T23:22:48.991Z,98225.13
2018-12-17T23:25:18.268Z,98225.44
2018-12-17T23:27:51.349Z,98225.90
2018-12-17T23:30:23.350Z,98219.53
2018-12-17T23:32:52.694Z,98217.12
2018-12-17T23:35:21.990Z,98227.28
2018-12-17T23:37:51.334Z,98225.92
2018-12-17T23:40:20.678Z,98231.73
2018-12-17T23:42:50.045Z,98224.42
2018-12-17T23:45:21.489Z,98236.06
2018-12-17T23:47:51.378Z,98229.69
2018-12-17T23:50:20.741Z,98226.66
2018-12-17T23:52:50.017Z,98229.02
2018-12-17T23:55:19.340Z,98227.28
2018-12-17T23:57:50.050Z,98228.55
